Bath, Canada
Current Conditions -  °F | °C
As of 11:00 PM on Sunday 21 Dec 2014 (Local Time) from CYGK Reporting Station
Haze Haze  
Wind Chill: 10°   Ceiling: Unl
Heat Index: 19°   Visibility: 6mi
Dew Point: 18°   Wind: 7mph
Humidity: 93%   Direction: 50°NE
Pressure: 30.36"   Gusts: NA
Location:  44.18°N, 76.77°W
Report Text: CYGK 220400Z 05006KT 6SM BR SKC M07/M08 A3036 RMK LAST STFD OBS/NEXT 221100 UTC SLP285
Loading
Personal Weather Stations






























Interactive Weather Map New forecast layout! Learn more

10-Day Weather Forecast

Advertisements
Track Severe Weather on mobile